Time,TemperatureF,DewpointF,PressureIn,WindDirection,WindDirectionDegrees,WindSpeedMPH,WindSpeedGustMPH,Humidity,HourlyPrecipIn,Conditions,Clouds,dailyrainin,SoftwareType,DateUTC
2013-01-16 00:02:00,36.0,34.0,29.96,North,2,1.0,3.0,92,0.06,,,1.38,,2013-01-16 06:02:00,
2013-01-16 00:12:00,36.0,34.0,29.96,North,2,1.0,3.0,92,0.06,,,1.38,,2013-01-16 06:12:00,
2013-01-16 00:22:00,36.0,34.0,29.97,NNW,343,2.0,5.0,92,0.06,,,1.37,,2013-01-16 06:22:00,
2013-01-16 00:32:00,36.0,34.0,29.98,WNW,298,0.0,3.0,92,0.06,,,1.37,,2013-01-16 06:32:00,
2013-01-16 00:43:00,36.0,34.0,29.98,WNW,298,0.0,3.0,92,0.06,,,1.37,,2013-01-16 06:43:00,
2013-01-16 00:53:00,36.0,34.0,29.98,NNW,344,1.0,3.0,92,0.05,,,1.37,,2013-01-16 06:53:00,
2013-01-16 01:02:00,36.0,34.0,29.97,NNE,21,2.0,5.0,92,0.06,,,1.37,,2013-01-16 07:02:00,
2013-01-16 01:12:00,36.0,34.0,29.97,NNE,21,2.0,5.0,92,0.06,,,1.37,,2013-01-16 07:12:00,
2013-01-16 01:22:00,36.0,34.0,29.98,WNW,289,1.0,3.0,92,0.06,,,1.36,,2013-01-16 07:22:00,
2013-01-16 01:32:00,36.0,34.0,29.98,WNW,289,1.0,3.0,92,0.06,,,1.36,,2013-01-16 07:32:00,
2013-01-16 01:42:00,36.0,34.0,29.98,WNW,289,1.0,3.0,92,0.06,,,1.36,,2013-01-16 07:42:00,
2013-01-16 01:52:00,36.0,34.0,29.99,WNW,283,0.0,5.0,92,0.06,,,1.36,,2013-01-16 07:52:00,
2013-01-16 02:02:00,36.0,34.0,29.99,NNW,330,2.0,6.0,92,0.06,,,1.36,,2013-01-16 08:02:00,
2013-01-16 02:12:00,36.0,34.0,29.99,NNW,330,2.0,6.0,92,0.06,,,1.36,,2013-01-16 08:12:00,
2013-01-16 02:22:00,36.0,34.0,29.98,NNW,344,2.0,7.0,92,0.06,,,1.36,,2013-01-16 08:22:00,
2013-01-16 02:32:00,36.0,34.0,30.00,North,0,1.0,5.0,92,0.06,,,1.36,,2013-01-16 08:32:00,
2013-01-16 02:42:00,36.0,34.0,30.00,North,0,1.0,5.0,92,0.06,,,1.36,,2013-01-16 08:42:00,
2013-01-16 02:52:00,36.0,34.0,30.00,NNW,345,0.0,3.0,93,0.06,,,1.36,,2013-01-16 08:52:00,
2013-01-16 03:02:00,36.0,34.0,30.00,NW,313,0.0,3.0,92,0.06,,,1.36,,2013-01-16 09:02:00,
2013-01-16 03:12:00,36.0,34.0,30.00,NW,313,0.0,3.0,92,0.06,,,1.36,,2013-01-16 09:12:00,
2013-01-16 03:22:00,36.0,34.0,30.01,WNW,284,1.0,7.0,92,0.05,,,1.35,,2013-01-16 09:22:00,
2013-01-16 03:32:00,36.0,34.0,30.01,WNW,292,0.0,3.0,92,0.05,,,1.35,,2013-01-16 09:32:00,
2013-01-16 03:42:00,36.0,34.0,30.01,WNW,292,0.0,3.0,92,0.05,,,1.35,,2013-01-16 09:42:00,
2013-01-16 03:53:00,36.0,34.0,30.01,North,352,1.0,3.0,92,0.05,,,1.35,,2013-01-16 09:53:00,
2013-01-16 04:02:00,36.0,34.0,30.00,North,358,2.0,5.0,92,0.05,,,1.35,,2013-01-16 10:02:00,
2013-01-16 04:12:00,36.0,34.0,30.00,North,358,2.0,5.0,92,0.05,,,1.35,,2013-01-16 10:12:00,
2013-01-16 04:22:00,35.0,33.0,29.99,North,349,2.0,5.0,92,0.06,,,1.36,,2013-01-16 10:22:00,
2013-01-16 04:32:00,35.0,33.0,29.98,North,6,1.0,5.0,92,0.06,,,1.36,,2013-01-16 10:32:00,
2013-01-16 04:42:00,35.0,33.0,29.98,North,6,1.0,5.0,92,0.06,,,1.36,,2013-01-16 10:42:00,
2013-01-16 04:53:00,35.0,33.0,30.00,North,354,0.0,3.0,92,0.06,,,1.36,,2013-01-16 10:53:00,
2013-01-16 05:02:00,35.0,33.0,30.01,North,354,0.0,0.0,92,0.05,,,1.36,,2013-01-16 11:02:00,
2013-01-16 05:12:00,35.0,33.0,30.01,North,354,0.0,0.0,92,0.05,,,1.36,,2013-01-16 11:12:00,
2013-01-16 05:22:00,35.0,33.0,30.00,North,358,1.0,3.0,92,0.05,,,1.36,,2013-01-16 11:22:00,
2013-01-16 05:32:00,35.0,33.0,29.99,North,359,0.0,1.0,92,0.05,,,1.37,,2013-01-16 11:32:00,
2013-01-16 05:42:00,35.0,33.0,29.99,North,359,0.0,1.0,92,0.05,,,1.37,,2013-01-16 11:42:00,
2013-01-16 05:53:00,36.0,34.0,30.00,North,1,0.0,5.0,92,0.05,,,1.37,,2013-01-16 11:53:00,
2013-01-16 06:03:00,36.0,34.0,30.01,North,1,0.0,1.0,92,0.05,,,1.37,,2013-01-16 12:03:00,
2013-01-16 06:12:00,36.0,34.0,30.01,North,1,0.0,1.0,92,0.05,,,1.37,,2013-01-16 12:12:00,
2013-01-16 06:22:00,36.0,34.0,29.98,North,0,0.0,0.0,92,0.05,,,1.38,,2013-01-16 12:22:00,
2013-01-16 06:33:00,36.0,34.0,30.01,West,278,0.0,6.0,92,0.05,,,1.38,,2013-01-16 12:33:00,
2013-01-16 06:43:00,36.0,34.0,30.01,West,278,0.0,6.0,92,0.05,,,1.38,,2013-01-16 12:43:00,
2013-01-16 06:53:00,36.0,34.0,30.01,WSW,250,1.0,5.0,92,0.05,,,1.39,,2013-01-16 12:53:00,
2013-01-16 07:02:00,36.0,34.0,30.01,NW,311,1.0,3.0,92,0.06,,,1.40,,2013-01-16 13:02:00,
2013-01-16 07:12:00,36.0,34.0,30.01,NW,311,1.0,3.0,92,0.06,,,1.40,,2013-01-16 13:12:00,
2013-01-16 07:22:00,36.0,34.0,30.02,NW,325,0.0,3.0,92,0.05,,,1.39,,2013-01-16 13:22:00,
2013-01-16 07:33:00,36.0,34.0,30.04,North,355,0.0,3.0,92,0.05,,,1.41,,2013-01-16 13:33:00,
2013-01-16 07:43:00,36.0,34.0,30.04,North,355,0.0,3.0,92,0.05,,,1.41,,2013-01-16 13:43:00,
2013-01-16 07:52:00,36.0,34.0,30.04,North,355,0.0,3.0,92,0.05,,,1.41,,2013-01-16 13:52:00,
2013-01-16 08:03:00,35.0,33.0,30.05,North,351,3.0,8.0,92,0.04,,,1.41,,2013-01-16 14:03:00,
2013-01-16 08:12:00,35.0,33.0,30.05,North,351,3.0,8.0,92,0.04,,,1.41,,2013-01-16 14:12:00,
2013-01-16 08:23:00,35.0,33.0,30.07,NNW,333,0.0,2.0,92,0.05,,,1.42,,2013-01-16 14:23:00,
2013-01-16 08:33:00,35.0,33.0,30.06,NNW,345,2.0,8.0,92,0.05,,,1.42,,2013-01-16 14:33:00,
2013-01-16 08:42:00,35.0,33.0,30.06,NNW,345,2.0,8.0,92,0.05,,,1.42,,2013-01-16 14:42:00,
2013-01-16 08:53:00,35.0,33.0,30.06,North,355,2.0,8.0,92,0.04,,,1.41,,2013-01-16 14:53:00,
2013-01-16 09:03:00,35.0,33.0,30.07,North,359,2.0,3.0,92,0.05,,,1.42,,2013-01-16 15:03:00,
2013-01-16 09:12:00,35.0,33.0,30.07,North,359,2.0,3.0,92,0.05,,,1.42,,2013-01-16 15:12:00,
2013-01-16 09:22:00,35.0,33.0,30.07,West,266,1.0,3.0,92,0.04,,,1.42,,2013-01-16 15:22:00,
2013-01-16 09:33:00,36.0,34.0,30.09,West,266,0.0,0.0,92,0.03,,,1.41,,2013-01-16 15:33:00,
2013-01-16 09:43:00,36.0,34.0,30.09,West,266,0.0,0.0,92,0.03,,,1.41,,2013-01-16 15:43:00,
2013-01-16 09:52:00,36.0,34.0,30.07,North,9,1.0,3.0,92,0.04,,,1.41,,2013-01-16 15:52:00,
2013-01-16 10:03:00,36.0,34.0,30.08,North,9,1.0,3.0,93,0.03,,,1.41,,2013-01-16 16:03:00,
2013-01-16 10:12:00,36.0,34.0,30.08,North,9,1.0,3.0,93,0.03,,,1.41,,2013-01-16 16:12:00,
2013-01-16 10:22:00,36.0,34.0,30.07,NNE,21,1.0,3.0,92,0.04,,,1.41,,2013-01-16 16:22:00,
2013-01-16 10:33:00,36.0,34.0,30.07,NNE,21,1.0,3.0,92,0.04,,,1.41,,2013-01-16 16:33:00,
2013-01-16 10:42:00,36.0,34.0,30.07,NNE,21,1.0,3.0,92,0.04,,,1.41,,2013-01-16 16:42:00,
2013-01-16 10:52:00,36.0,34.0,30.08,North,357,1.0,3.0,92,0.04,,,1.40,,2013-01-16 16:52:00,
2013-01-16 11:03:00,36.0,34.0,30.06,North,357,1.0,3.0,93,0.04,,,1.40,,2013-01-16 17:03:00,
2013-01-16 11:12:00,36.0,34.0,30.06,North,357,1.0,3.0,93,0.04,,,1.40,,2013-01-16 17:12:00,
2013-01-16 11:22:00,36.0,34.0,30.05,North,0,1.0,3.0,92,0.03,,,1.39,,2013-01-16 17:22:00,
2013-01-16 11:33:00,36.0,34.0,30.06,North,355,2.0,5.0,93,0.03,,,1.38,,2013-01-16 17:33:00,
2013-01-16 11:43:00,36.0,34.0,30.06,North,355,2.0,5.0,93,0.03,,,1.38,,2013-01-16 17:43:00,
2013-01-16 11:53:00,37.0,35.0,30.07,North,352,1.0,5.0,93,0.04,,,1.39,,2013-01-16 17:53:00,
2013-01-16 12:03:00,37.0,35.0,30.07,North,352,1.0,5.0,93,0.04,,,1.39,,2013-01-16 18:03:00,
2013-01-16 12:12:00,37.0,35.0,30.07,North,352,1.0,5.0,93,0.04,,,1.39,,2013-01-16 18:12:00,
2013-01-16 12:23:00,36.0,34.0,30.05,NNE,16,3.0,10.0,92,0.03,,,1.37,,2013-01-16 18:23:00,
2013-01-16 12:33:00,36.0,34.0,30.05,NNW,337,2.0,5.0,92,0.03,,,1.36,,2013-01-16 18:33:00,
2013-01-16 12:42:00,36.0,34.0,30.05,NNW,337,2.0,5.0,92,0.03,,,1.36,,2013-01-16 18:42:00,
2013-01-16 12:53:00,36.0,34.0,30.05,NNW,337,2.0,5.0,92,0.03,,,1.36,,2013-01-16 18:53:00,
2013-01-16 13:03:00,36.0,34.0,30.05,North,358,5.0,14.0,92,0.03,,,1.34,,2013-01-16 19:03:00,
2013-01-16 13:12:00,36.0,34.0,30.05,North,358,5.0,14.0,92,0.03,,,1.34,,2013-01-16 19:12:00,
2013-01-16 13:23:00,36.0,34.0,30.06,West,271,1.0,9.0,92,0.03,,,1.33,,2013-01-16 19:23:00,
2013-01-16 13:33:00,36.0,34.0,30.06,West,271,1.0,9.0,92,0.03,,,1.33,,2013-01-16 19:33:00,
2013-01-16 13:43:00,36.0,34.0,30.06,West,271,1.0,9.0,92,0.03,,,1.33,,2013-01-16 19:43:00,
2013-01-16 13:53:00,36.0,34.0,30.06,North,351,1.0,10.0,92,0.03,,,1.31,,2013-01-16 19:53:00,
2013-01-16 14:03:00,36.0,34.0,30.05,North,5,1.0,5.0,92,0.03,,,1.30,,2013-01-16 20:03:00,
2013-01-16 14:12:00,36.0,34.0,30.05,North,5,1.0,5.0,92,0.03,,,1.30,,2013-01-16 20:12:00,
2013-01-16 14:23:00,35.0,32.0,30.03,NE,45,5.0,9.0,90,0.03,,,1.29,,2013-01-16 20:23:00,
2013-01-16 14:33:00,35.0,32.0,30.03,NE,45,5.0,9.0,90,0.03,,,1.29,,2013-01-16 20:33:00,
2013-01-16 14:42:00,35.0,32.0,30.03,NE,45,5.0,9.0,90,0.03,,,1.29,,2013-01-16 20:42:00,
2013-01-16 14:53:00,36.0,34.0,30.04,North,7,3.0,5.0,91,0.03,,,1.26,,2013-01-16 20:53:00,
2013-01-16 15:03:00,36.0,34.0,30.05,North,354,3.0,8.0,91,0.03,,,1.26,,2013-01-16 21:03:00,
2013-01-16 15:12:00,36.0,34.0,30.05,North,354,3.0,8.0,91,0.03,,,1.26,,2013-01-16 21:12:00,
2013-01-16 15:22:00,36.0,33.0,30.04,NNE,25,3.0,8.0,90,0.03,,,1.25,,2013-01-16 21:22:00,
2013-01-16 15:33:00,37.0,34.0,30.03,NNE,30,1.0,7.0,90,0.03,,,1.24,,2013-01-16 21:33:00,
2013-01-16 15:43:00,37.0,34.0,30.03,NNE,30,1.0,7.0,90,0.03,,,1.24,,2013-01-16 21:43:00,
2013-01-16 15:53:00,36.0,33.0,30.04,NNE,13,1.0,3.0,90,0.03,,,1.22,,2013-01-16 21:53:00,
2013-01-16 16:02:00,36.0,33.0,30.04,NNE,13,1.0,3.0,90,0.03,,,1.22,,2013-01-16 22:02:00,
2013-01-16 16:12:00,36.0,33.0,30.04,NNE,13,1.0,3.0,90,0.03,,,1.22,,2013-01-16 22:12:00,
2013-01-16 16:22:00,37.0,34.0,30.04,North,358,2.0,8.0,89,0.02,,,1.20,,2013-01-16 22:22:00,
2013-01-16 16:33:00,37.0,34.0,30.04,North,358,2.0,8.0,89,0.02,,,1.20,,2013-01-16 22:33:00,
2013-01-16 16:43:00,37.0,34.0,30.04,North,358,2.0,8.0,89,0.02,,,1.20,,2013-01-16 22:43:00,
2013-01-16 16:53:00,37.0,34.0,30.05,North,0,1.0,6.0,89,0.02,,,1.17,,2013-01-16 22:53:00,
2013-01-16 17:02:00,37.0,34.0,30.05,NNE,14,1.0,3.0,89,0.02,,,1.16,,2013-01-16 23:02:00,
2013-01-16 17:12:00,36.0,33.0,30.05,North,3,0.0,3.0,89,0.01,,,1.15,,2013-01-16 23:12:00,
2013-01-16 17:22:00,36.0,33.0,30.05,North,3,0.0,3.0,89,0.01,,,1.15,,2013-01-16 23:22:00,
2013-01-16 17:32:00,37.0,34.0,30.06,North,0,1.0,5.0,90,0.02,,,1.14,,2013-01-16 23:32:00,
2013-01-16 17:42:00,37.0,34.0,30.06,North,0,1.0,5.0,90,0.02,,,1.14,,2013-01-16 23:42:00,
2013-01-16 17:52:00,37.0,34.0,30.05,North,349,1.0,5.0,90,0.01,,,1.12,,2013-01-16 23:52:00,
2013-01-16 18:02:00,37.0,34.0,30.06,NNW,347,1.0,3.0,89,0.02,,,1.12,,2013-01-17 00:02:00,
2013-01-16 18:12:00,37.0,34.0,30.06,NNW,347,1.0,3.0,89,0.02,,,1.12,,2013-01-17 00:12:00,
2013-01-16 18:22:00,37.0,34.0,30.05,North,351,2.0,6.0,90,0.01,,,1.09,,2013-01-17 00:22:00,
2013-01-16 18:32:00,37.0,35.0,30.05,NW,323,1.0,3.0,91,0.01,,,1.08,,2013-01-17 00:32:00,
2013-01-16 18:42:00,37.0,35.0,30.05,NW,323,1.0,3.0,91,0.01,,,1.08,,2013-01-17 00:42:00,
2013-01-16 18:52:00,37.0,35.0,30.05,NNE,28,3.0,8.0,91,0.01,,,1.06,,2013-01-17 00:52:00,
2013-01-16 19:02:00,37.0,35.0,30.05,NNE,28,3.0,8.0,91,0.01,,,1.06,,2013-01-17 01:02:00,
2013-01-16 19:12:00,37.0,35.0,30.05,NNE,28,3.0,8.0,91,0.01,,,1.06,,2013-01-17 01:12:00,
2013-01-16 19:22:00,37.0,35.0,30.06,North,0,0.0,3.0,91,0.00,,,1.03,,2013-01-17 01:22:00,
2013-01-16 19:32:00,37.0,35.0,30.06,North,0,1.0,3.0,91,0.00,,,1.02,,2013-01-17 01:32:00,
2013-01-16 19:43:00,37.0,35.0,30.06,North,0,1.0,3.0,91,0.00,,,1.02,,2013-01-17 01:43:00,
2013-01-16 19:52:00,37.0,35.0,30.03,NNE,22,3.0,5.0,91,0.00,,,1.00,,2013-01-17 01:52:00,
2013-01-16 20:02:00,37.0,35.0,30.03,North,8,2.0,5.0,91,0.00,,,0.99,,2013-01-17 02:02:00,
2013-01-16 20:12:00,37.0,35.0,30.03,North,8,2.0,5.0,91,0.00,,,0.99,,2013-01-17 02:12:00,
2013-01-16 20:22:00,37.0,35.0,30.04,NE,44,0.0,5.0,91,0.00,,,0.97,,2013-01-17 02:22:00,
2013-01-16 20:32:00,37.0,35.0,30.06,NNE,33,1.0,3.0,91,0.00,,,0.96,,2013-01-17 02:32:00,
2013-01-16 20:42:00,37.0,35.0,30.06,NNE,33,1.0,3.0,91,0.00,,,0.96,,2013-01-17 02:42:00,
2013-01-16 20:52:00,37.0,35.0,30.06,NNE,33,1.0,3.0,91,0.00,,,0.96,,2013-01-17 02:52:00,
2013-01-16 21:02:00,37.0,35.0,30.07,WNW,295,2.0,5.0,91,0.00,,,0.92,,2013-01-17 03:02:00,
2013-01-16 21:12:00,37.0,35.0,30.07,WNW,295,2.0,5.0,91,0.00,,,0.92,,2013-01-17 03:12:00,
2013-01-16 21:22:00,37.0,35.0,30.05,North,8,3.0,7.0,91,0.00,,,0.90,,2013-01-17 03:22:00,
2013-01-16 21:32:00,37.0,35.0,30.04,North,355,3.0,6.0,91,0.00,,,0.89,,2013-01-17 03:32:00,
2013-01-16 21:42:00,37.0,35.0,30.04,North,355,3.0,6.0,91,0.00,,,0.89,,2013-01-17 03:42:00,
2013-01-16 21:52:00,37.0,35.0,30.05,North,354,1.0,3.0,91,0.00,,,0.88,,2013-01-17 03:52:00,
2013-01-16 22:02:00,37.0,35.0,30.05,North,359,0.0,3.0,91,0.00,,,0.85,,2013-01-17 04:02:00,
2013-01-16 22:12:00,37.0,35.0,30.05,North,349,1.0,5.0,91,0.00,,,0.84,,2013-01-17 04:12:00,
2013-01-16 22:22:00,37.0,35.0,30.05,North,349,1.0,5.0,91,0.00,,,0.84,,2013-01-17 04:22:00,
2013-01-16 22:32:00,38.0,36.0,30.06,NNE,19,1.0,3.0,91,0.00,,,0.82,,2013-01-17 04:32:00,
2013-01-16 22:42:00,38.0,36.0,30.06,NNE,19,1.0,3.0,91,0.00,,,0.82,,2013-01-17 04:42:00,
2013-01-16 22:52:00,38.0,36.0,30.05,North,355,3.0,6.0,91,0.00,,,0.81,,2013-01-17 04:52:00,
2013-01-16 23:04:00,37.0,35.0,30.04,North,7,3.0,9.0,91,0.00,,,0.79,,2013-01-17 05:04:00,
2013-01-16 23:12:00,37.0,35.0,30.04,North,7,3.0,9.0,91,0.00,,,0.79,,2013-01-17 05:12:00,
2013-01-16 23:22:00,37.0,35.0,30.04,NNW,347,3.0,9.0,91,0.00,,,0.77,,2013-01-17 05:22:00,
2013-01-16 23:33:00,37.0,35.0,30.03,NNW,340,3.0,9.0,91,0.00,,,0.76,,2013-01-17 05:33:00,
2013-01-16 23:42:00,37.0,35.0,30.03,NNW,340,3.0,9.0,91,0.00,,,0.76,,2013-01-17 05:42:00,
2013-01-16 23:53:00,37.0,35.0,30.04,North,355,1.0,6.0,91,0.00,,,0.73,,2013-01-17 05:53:00,